LFKF/FSC METAR and TAF weather

Enter ICAO airport designator
Station Type Date Time Source
LFKF METAR 2019/06/19 01:30 UTC NOAA

LFKF 190130Z AUTO 00000KT 9999 BKN005 15/13 Q1014


Station Type Date Time Source
LFKF Decoded METAR 2019/06/19 01:30 UTC NOAA

Figari, France (LFKF) 41-30N 009-06E 23M
Jun 18, 2019 - 09:30 PM EDT / 2019.06.19 0130 UTC
Wind: Calm:0
Visibility: greater than 7 mile(s):0
Sky conditions: mostly cloudy
Temperature: 59 F (15 C)
Dew Point: 55 F (13 C)
Relative Humidity: 87%
Pressure (altimeter): 29.94 in. Hg (1014 hPa)
ob: LFKF 190130Z AUTO 00000KT 9999 BKN005 15/13 Q1014
cycle: 1

Station Type Date Time Source
LFKF TAF 2019/06/18 21:39 UTC NOAA

TAF TAF LFKF 182129Z 1821/1915 CNL

Example: see airport list